Tallassee, Alabama
Current Conditions -  °F | °C
As of 12:35 PM on Sunday 23 Nov 2014 (Local Time) from KALX Reporting Station
Light Rain Light Rain  
Wind Chill: 62°   Ceiling: 600
Heat Index: 62°   Visibility: 10mi
Dew Point: 58°   Wind: 6mph
Humidity: 86%   Direction: 110°ESE
Pressure: 29.68"   Gusts: NA
Location:  32.54°N, 85.89°W
Report Text: KALX 231835Z AUTO 11005KT 10SM -RA OVC006 17/14 A2968 RMK AO2 T01660143
Loading
Personal Weather Stations






























Interactive Weather Map New forecast layout! Learn more

10-Day Weather Forecast

Advertisements
Track Severe Weather on mobile